sensor_id;sensor_type;location;lat;lon;timestamp;P1;durP1;ratioP1;P2;durP2;ratioP2
75386;SDS011;63966;47.914;22.266;2023-05-19T00:01:41;5.97;;;3.10;;
75386;SDS011;63966;47.914;22.266;2023-05-19T00:04:46;9.20;;;3.30;;
75386;SDS011;63966;47.914;22.266;2023-05-19T00:07:50;7.37;;;3.20;;
75386;SDS011;63966;47.914;22.266;2023-05-19T00:10:55;6.93;;;3.10;;
75386;SDS011;63966;47.914;22.266;2023-05-19T00:13:59;8.77;;;3.75;;
75386;SDS011;63966;47.914;22.266;2023-05-19T00:17:04;5.97;;;3.30;;
75386;SDS011;63966;47.914;22.266;2023-05-19T00:20:09;6.10;;;3.23;;
75386;SDS011;63966;47.914;22.266;2023-05-19T00:23:13;6.83;;;3.63;;
75386;SDS011;63966;47.914;22.266;2023-05-19T00:26:16;7.40;;;3.40;;
75386;SDS011;63966;47.914;22.266;2023-05-19T00:29:29;6.85;;;3.25;;
75386;SDS011;63966;47.914;22.266;2023-05-19T00:32:32;7.20;;;3.20;;
75386;SDS011;63966;47.914;22.266;2023-05-19T00:35:36;6.73;;;3.47;;
75386;SDS011;63966;47.914;22.266;2023-05-19T00:38:39;6.53;;;3.03;;
75386;SDS011;63966;47.914;22.266;2023-05-19T00:41:42;6.45;;;3.40;;
75386;SDS011;63966;47.914;22.266;2023-05-19T00:44:46;6.80;;;3.58;;
75386;SDS011;63966;47.914;22.266;2023-05-19T00:47:49;6.32;;;3.30;;
75386;SDS011;63966;47.914;22.266;2023-05-19T00:50:53;6.10;;;3.00;;
75386;SDS011;63966;47.914;22.266;2023-05-19T00:54:03;8.73;;;2.90;;
75386;SDS011;63966;47.914;22.266;2023-05-19T00:57:07;7.65;;;3.00;;
75386;SDS011;63966;47.914;22.266;2023-05-19T01:00:10;7.85;;;2.90;;
75386;SDS011;63966;47.914;22.266;2023-05-19T01:03:14;8.25;;;3.42;;
75386;SDS011;63966;47.914;22.266;2023-05-19T01:06:21;6.23;;;2.90;;
75386;SDS011;63966;47.914;22.266;2023-05-19T01:09:26;6.63;;;2.90;;
75386;SDS011;63966;47.914;22.266;2023-05-19T01:12:31;7.05;;;3.22;;
75386;SDS011;63966;47.914;22.266;2023-05-19T01:15:44;6.25;;;3.22;;
75386;SDS011;63966;47.914;22.266;2023-05-19T01:32:58;6.90;;;3.20;;
75386;SDS011;63966;47.914;22.266;2023-05-19T01:36:03;6.30;;;3.10;;
75386;SDS011;63966;47.914;22.266;2023-05-19T01:39:08;6.70;;;3.40;;
75386;SDS011;63966;47.914;22.266;2023-05-19T01:42:13;6.60;;;3.20;;
75386;SDS011;63966;47.914;22.266;2023-05-19T01:45:17;6.50;;;3.13;;
75386;SDS011;63966;47.914;22.266;2023-05-19T01:48:21;6.18;;;3.00;;
75386;SDS011;63966;47.914;22.266;2023-05-19T01:51:25;8.13;;;3.13;;
75386;SDS011;63966;47.914;22.266;2023-05-19T01:54:29;6.10;;;2.90;;
75386;SDS011;63966;47.914;22.266;2023-05-19T01:57:42;6.17;;;3.27;;
75386;SDS011;63966;47.914;22.266;2023-05-19T02:04:34;6.00;;;3.05;;
75386;SDS011;63966;47.914;22.266;2023-05-19T02:07:51;6.10;;;2.92;;
75386;SDS011;63966;47.914;22.266;2023-05-19T02:11:21;5.97;;;3.10;;
75386;SDS011;63966;47.914;22.266;2023-05-19T02:14:53;6.60;;;3.00;;
75386;SDS011;63966;47.914;22.266;2023-05-19T02:18:02;6.38;;;3.00;;
75386;SDS011;63966;47.914;22.266;2023-05-19T02:21:06;6.55;;;3.15;;
75386;SDS011;63966;47.914;22.266;2023-05-19T02:24:14;6.45;;;3.45;;
75386;SDS011;63966;47.914;22.266;2023-05-19T02:27:17;6.63;;;3.30;;
75386;SDS011;63966;47.914;22.266;2023-05-19T02:30:21;6.07;;;2.80;;
75386;SDS011;63966;47.914;22.266;2023-05-19T02:33:24;9.25;;;3.17;;
75386;SDS011;63966;47.914;22.266;2023-05-19T02:36:30;6.70;;;3.47;;
75386;SDS011;63966;47.914;22.266;2023-05-19T02:39:36;8.93;;;3.42;;
75386;SDS011;63966;47.914;22.266;2023-05-19T02:42:39;7.03;;;3.20;;
75386;SDS011;63966;47.914;22.266;2023-05-19T02:45:43;8.50;;;3.10;;
75386;SDS011;63966;47.914;22.266;2023-05-19T02:48:46;7.40;;;3.42;;
75386;SDS011;63966;47.914;22.266;2023-05-19T02:51:50;6.80;;;3.40;;
75386;SDS011;63966;47.914;22.266;2023-05-19T02:54:54;10.32;;;3.40;;
75386;SDS011;63966;47.914;22.266;2023-05-19T02:57:57;5.53;;;2.70;;
75386;SDS011;63966;47.914;22.266;2023-05-19T03:01:00;7.70;;;3.30;;
75386;SDS011;63966;47.914;22.266;2023-05-19T03:04:04;7.85;;;3.10;;
75386;SDS011;63966;47.914;22.266;2023-05-19T03:07:07;6.35;;;2.80;;
75386;SDS011;63966;47.914;22.266;2023-05-19T03:10:11;6.50;;;2.90;;
75386;SDS011;63966;47.914;22.266;2023-05-19T03:13:14;7.27;;;3.03;;
75386;SDS011;63966;47.914;22.266;2023-05-19T03:16:18;6.40;;;2.77;;
75386;SDS011;63966;47.914;22.266;2023-05-19T03:19:21;6.07;;;3.00;;
75386;SDS011;63966;47.914;22.266;2023-05-19T03:22:25;6.80;;;2.88;;
75386;SDS011;63966;47.914;22.266;2023-05-19T03:25:28;5.07;;;2.63;;
75386;SDS011;63966;47.914;22.266;2023-05-19T03:28:32;6.17;;;2.60;;
75386;SDS011;63966;47.914;22.266;2023-05-19T03:31:36;4.43;;;2.33;;
75386;SDS011;63966;47.914;22.266;2023-05-19T03:34:39;5.97;;;2.80;;
75386;SDS011;63966;47.914;22.266;2023-05-19T03:37:43;5.50;;;2.63;;
75386;SDS011;63966;47.914;22.266;2023-05-19T03:40:47;5.10;;;2.60;;
75386;SDS011;63966;47.914;22.266;2023-05-19T03:43:50;6.10;;;2.60;;
75386;SDS011;63966;47.914;22.266;2023-05-19T03:46:53;6.73;;;2.83;;
75386;SDS011;63966;47.914;22.266;2023-05-19T03:50:23;5.35;;;2.45;;
75386;SDS011;63966;47.914;22.266;2023-05-19T03:53:34;8.55;;;2.78;;
75386;SDS011;63966;47.914;22.266;2023-05-19T03:56:39;5.68;;;2.30;;
75386;SDS011;63966;47.914;22.266;2023-05-19T03:59:43;5.13;;;2.80;;
75386;SDS011;63966;47.914;22.266;2023-05-19T04:02:47;4.43;;;2.30;;
75386;SDS011;63966;47.914;22.266;2023-05-19T04:05:51;5.35;;;2.10;;
75386;SDS011;63966;47.914;22.266;2023-05-19T04:08:54;5.25;;;2.65;;
75386;SDS011;63966;47.914;22.266;2023-05-19T04:11:57;4.80;;;2.40;;
75386;SDS011;63966;47.914;22.266;2023-05-19T04:15:01;4.50;;;2.20;;
75386;SDS011;63966;47.914;22.266;2023-05-19T04:18:04;5.33;;;2.20;;
75386;SDS011;63966;47.914;22.266;2023-05-19T04:21:08;4.85;;;2.45;;
75386;SDS011;63966;47.914;22.266;2023-05-19T04:24:12;4.55;;;2.40;;
75386;SDS011;63966;47.914;22.266;2023-05-19T04:27:16;4.63;;;2.20;;
75386;SDS011;63966;47.914;22.266;2023-05-19T04:30:20;4.57;;;2.50;;
75386;SDS011;63966;47.914;22.266;2023-05-19T04:33:24;4.83;;;2.30;;
75386;SDS011;63966;47.914;22.266;2023-05-19T04:36:30;4.85;;;2.13;;
75386;SDS011;63966;47.914;22.266;2023-05-19T04:39:36;4.70;;;2.55;;
75386;SDS011;63966;47.914;22.266;2023-05-19T04:42:48;6.93;;;2.28;;
75386;SDS011;63966;47.914;22.266;2023-05-19T04:45:53;4.53;;;1.93;;
75386;SDS011;63966;47.914;22.266;2023-05-19T04:48:59;5.20;;;2.47;;
75386;SDS011;63966;47.914;22.266;2023-05-19T04:52:06;5.13;;;2.20;;
75386;SDS011;63966;47.914;22.266;2023-05-19T04:55:12;4.95;;;2.30;;
75386;SDS011;63966;47.914;22.266;2023-05-19T04:58:15;4.55;;;2.40;;
75386;SDS011;63966;47.914;22.266;2023-05-19T05:01:20;3.73;;;2.07;;
75386;SDS011;63966;47.914;22.266;2023-05-19T05:04:28;5.03;;;2.23;;
75386;SDS011;63966;47.914;22.266;2023-05-19T05:07:31;3.97;;;2.28;;
75386;SDS011;63966;47.914;22.266;2023-05-19T05:10:35;5.57;;;2.47;;
75386;SDS011;63966;47.914;22.266;2023-05-19T05:13:39;4.20;;;2.00;;
75386;SDS011;63966;47.914;22.266;2023-05-19T05:16:43;3.57;;;2.10;;
75386;SDS011;63966;47.914;22.266;2023-05-19T05:19:52;7.00;;;2.60;;
75386;SDS011;63966;47.914;22.266;2023-05-19T05:22:56;6.50;;;2.45;;
75386;SDS011;63966;47.914;22.266;2023-05-19T05:26:01;4.32;;;2.28;;
75386;SDS011;63966;47.914;22.266;2023-05-19T05:29:13;4.82;;;2.30;;
75386;SDS011;63966;47.914;22.266;2023-05-19T05:32:16;4.03;;;2.07;;
75386;SDS011;63966;47.914;22.266;2023-05-19T05:35:20;5.03;;;2.27;;
75386;SDS011;63966;47.914;22.266;2023-05-19T05:38:25;4.63;;;2.40;;
75386;SDS011;63966;47.914;22.266;2023-05-19T05:41:28;4.57;;;2.22;;
75386;SDS011;63966;47.914;22.266;2023-05-19T05:44:42;4.15;;;2.30;;
75386;SDS011;63966;47.914;22.266;2023-05-19T05:47:45;4.57;;;2.20;;
75386;SDS011;63966;47.914;22.266;2023-05-19T05:50:50;4.60;;;2.50;;
75386;SDS011;63966;47.914;22.266;2023-05-19T05:53:59;6.95;;;2.53;;
75386;SDS011;63966;47.914;22.266;2023-05-19T05:57:10;4.38;;;2.33;;
75386;SDS011;63966;47.914;22.266;2023-05-19T06:00:14;5.20;;;2.55;;
75386;SDS011;63966;47.914;22.266;2023-05-19T06:03:24;5.30;;;2.47;;
75386;SDS011;63966;47.914;22.266;2023-05-19T06:06:30;5.97;;;2.37;;
75386;SDS011;63966;47.914;22.266;2023-05-19T06:09:35;4.90;;;2.20;;
75386;SDS011;63966;47.914;22.266;2023-05-19T06:12:41;4.75;;;2.35;;
75386;SDS011;63966;47.914;22.266;2023-05-19T06:15:45;4.53;;;2.40;;
75386;SDS011;63966;47.914;22.266;2023-05-19T06:18:59;7.28;;;2.65;;
75386;SDS011;63966;47.914;22.266;2023-05-19T06:22:02;5.27;;;2.63;;
75386;SDS011;63966;47.914;22.266;2023-05-19T06:25:07;4.85;;;2.63;;
75386;SDS011;63966;47.914;22.266;2023-05-19T06:28:11;6.53;;;2.95;;
75386;SDS011;63966;47.914;22.266;2023-05-19T06:31:14;6.90;;;2.70;;
75386;SDS011;63966;47.914;22.266;2023-05-19T06:34:25;5.22;;;2.70;;
75386;SDS011;63966;47.914;22.266;2023-05-19T06:37:29;6.37;;;2.80;;
75386;SDS011;63966;47.914;22.266;2023-05-19T06:40:32;5.13;;;2.72;;
75386;SDS011;63966;47.914;22.266;2023-05-19T06:43:38;7.00;;;3.08;;
75386;SDS011;63966;47.914;22.266;2023-05-19T06:46:47;6.80;;;3.00;;
75386;SDS011;63966;47.914;22.266;2023-05-19T06:49:50;5.97;;;2.83;;
75386;SDS011;63966;47.914;22.266;2023-05-19T06:53:00;6.73;;;2.90;;
75386;SDS011;63966;47.914;22.266;2023-05-19T06:56:04;8.50;;;3.50;;
75386;SDS011;63966;47.914;22.266;2023-05-19T06:59:10;8.98;;;3.45;;
75386;SDS011;63966;47.914;22.266;2023-05-19T07:02:13;6.90;;;3.38;;
75386;SDS011;63966;47.914;22.266;2023-05-19T07:05:17;7.07;;;3.40;;
75386;SDS011;63966;47.914;22.266;2023-05-19T07:08:25;5.20;;;3.40;;
75386;SDS011;63966;47.914;22.266;2023-05-19T07:11:29;6.25;;;3.55;;
75386;SDS011;63966;47.914;22.266;2023-05-19T07:14:33;6.45;;;3.50;;
75386;SDS011;63966;47.914;22.266;2023-05-19T07:17:38;5.93;;;3.45;;
75386;SDS011;63966;47.914;22.266;2023-05-19T07:20:42;6.72;;;3.80;;
75386;SDS011;63966;47.914;22.266;2023-05-19T07:23:46;6.23;;;3.10;;
75386;SDS011;63966;47.914;22.266;2023-05-19T07:26:49;6.10;;;3.40;;
75386;SDS011;63966;47.914;22.266;2023-05-19T07:29:53;6.68;;;4.07;;
75386;SDS011;63966;47.914;22.266;2023-05-19T07:32:56;8.90;;;3.40;;
75386;SDS011;63966;47.914;22.266;2023-05-19T07:36:01;6.00;;;3.75;;
75386;SDS011;63966;47.914;22.266;2023-05-19T07:39:08;6.93;;;4.03;;
75386;SDS011;63966;47.914;22.266;2023-05-19T07:42:12;8.55;;;4.05;;
75386;SDS011;63966;47.914;22.266;2023-05-19T07:45:15;6.65;;;3.78;;
75386;SDS011;63966;47.914;22.266;2023-05-19T07:48:19;6.47;;;3.90;;
75386;SDS011;63966;47.914;22.266;2023-05-19T07:51:24;7.80;;;4.30;;
75386;SDS011;63966;47.914;22.266;2023-05-19T07:54:28;10.30;;;4.50;;
75386;SDS011;63966;47.914;22.266;2023-05-19T07:57:31;6.82;;;3.92;;
75386;SDS011;63966;47.914;22.266;2023-05-19T08:00:35;8.75;;;4.85;;
75386;SDS011;63966;47.914;22.266;2023-05-19T08:03:39;9.70;;;3.90;;
75386;SDS011;63966;47.914;22.266;2023-05-19T08:06:42;6.53;;;3.97;;
75386;SDS011;63966;47.914;22.266;2023-05-19T08:09:46;6.63;;;3.80;;
75386;SDS011;63966;47.914;22.266;2023-05-19T08:12:50;12.10;;;4.40;;
75386;SDS011;63966;47.914;22.266;2023-05-19T08:15:53;7.65;;;4.03;;
75386;SDS011;63966;47.914;22.266;2023-05-19T08:19:01;6.57;;;3.95;;
75386;SDS011;63966;47.914;22.266;2023-05-19T08:22:08;6.38;;;4.00;;
75386;SDS011;63966;47.914;22.266;2023-05-19T08:25:11;9.77;;;4.00;;
75386;SDS011;63966;47.914;22.266;2023-05-19T08:28:15;9.13;;;4.80;;
75386;SDS011;63966;47.914;22.266;2023-05-19T08:31:19;8.68;;;4.65;;
75386;SDS011;63966;47.914;22.266;2023-05-19T08:34:24;8.18;;;4.53;;
75386;SDS011;63966;47.914;22.266;2023-05-19T08:37:27;9.80;;;4.72;;
75386;SDS011;63966;47.914;22.266;2023-05-19T08:40:34;8.57;;;4.57;;
75386;SDS011;63966;47.914;22.266;2023-05-19T08:43:42;10.55;;;4.28;;
75386;SDS011;63966;47.914;22.266;2023-05-19T08:46:46;10.63;;;4.68;;
75386;SDS011;63966;47.914;22.266;2023-05-19T08:49:51;7.93;;;4.97;;
75386;SDS011;63966;47.914;22.266;2023-05-19T08:53:21;7.50;;;4.17;;
75386;SDS011;63966;47.914;22.266;2023-05-19T08:56:35;7.77;;;4.40;;
75386;SDS011;63966;47.914;22.266;2023-05-19T08:59:40;8.27;;;4.22;;
75386;SDS011;63966;47.914;22.266;2023-05-19T09:02:46;8.70;;;3.80;;
75386;SDS011;63966;47.914;22.266;2023-05-19T09:06:11;10.70;;;3.63;;
75386;SDS011;63966;47.914;22.266;2023-05-19T09:09:15;8.07;;;3.97;;
75386;SDS011;63966;47.914;22.266;2023-05-19T09:12:18;10.00;;;3.90;;
75386;SDS011;63966;47.914;22.266;2023-05-19T09:15:24;7.72;;;4.03;;
75386;SDS011;63966;47.914;22.266;2023-05-19T09:18:31;8.73;;;3.63;;
75386;SDS011;63966;47.914;22.266;2023-05-19T09:21:35;7.57;;;4.00;;
75386;SDS011;63966;47.914;22.266;2023-05-19T09:24:38;7.87;;;3.70;;
75386;SDS011;63966;47.914;22.266;2023-05-19T09:27:42;9.20;;;3.63;;
75386;SDS011;63966;47.914;22.266;2023-05-19T09:30:47;6.50;;;3.95;;
75386;SDS011;63966;47.914;22.266;2023-05-19T09:33:51;8.25;;;4.30;;
75386;SDS011;63966;47.914;22.266;2023-05-19T09:36:55;8.10;;;4.40;;
75386;SDS011;63966;47.914;22.266;2023-05-19T09:40:01;7.90;;;4.20;;
75386;SDS011;63966;47.914;22.266;2023-05-19T09:43:06;8.37;;;4.30;;
75386;SDS011;63966;47.914;22.266;2023-05-19T09:46:11;8.57;;;4.00;;
75386;SDS011;63966;47.914;22.266;2023-05-19T09:49:23;9.25;;;4.55;;
75386;SDS011;63966;47.914;22.266;2023-05-19T09:52:30;10.15;;;3.95;;
75386;SDS011;63966;47.914;22.266;2023-05-19T09:55:36;9.27;;;4.60;;
75386;SDS011;63966;47.914;22.266;2023-05-19T09:58:43;8.97;;;4.43;;
75386;SDS011;63966;47.914;22.266;2023-05-19T10:01:47;8.65;;;4.00;;
75386;SDS011;63966;47.914;22.266;2023-05-19T10:04:51;10.82;;;4.30;;
75386;SDS011;63966;47.914;22.266;2023-05-19T10:07:56;8.88;;;4.70;;
75386;SDS011;63966;47.914;22.266;2023-05-19T10:10:59;8.97;;;4.00;;
75386;SDS011;63966;47.914;22.266;2023-05-19T10:14:04;8.40;;;4.10;;
75386;SDS011;63966;47.914;22.266;2023-05-19T10:17:09;8.50;;;3.80;;
75386;SDS011;63966;47.914;22.266;2023-05-19T10:20:15;6.85;;;3.72;;
75386;SDS011;63966;47.914;22.266;2023-05-19T10:23:19;8.15;;;3.70;;
75386;SDS011;63966;47.914;22.266;2023-05-19T10:26:23;10.43;;;4.37;;
75386;SDS011;63966;47.914;22.266;2023-05-19T10:29:30;9.20;;;4.40;;
75386;SDS011;63966;47.914;22.266;2023-05-19T10:32:38;6.82;;;4.30;;
75386;SDS011;63966;47.914;22.266;2023-05-19T10:39:27;6.78;;;3.55;;
75386;SDS011;63966;47.914;22.266;2023-05-19T10:42:40;7.60;;;4.00;;
75386;SDS011;63966;47.914;22.266;2023-05-19T10:46:03;9.20;;;4.00;;
75386;SDS011;63966;47.914;22.266;2023-05-19T10:49:07;8.38;;;4.20;;
75386;SDS011;63966;47.914;22.266;2023-05-19T10:52:19;6.85;;;4.13;;
75386;SDS011;63966;47.914;22.266;2023-05-19T10:58:48;12.90;;;3.80;;
75386;SDS011;63966;47.914;22.266;2023-05-19T11:01:53;9.57;;;4.00;;
75386;SDS011;63966;47.914;22.266;2023-05-19T11:04:57;10.77;;;4.05;;
75386;SDS011;63966;47.914;22.266;2023-05-19T11:08:23;8.75;;;4.10;;
75386;SDS011;63966;47.914;22.266;2023-05-19T11:11:52;10.20;;;3.88;;
75386;SDS011;63966;47.914;22.266;2023-05-19T11:14:56;9.27;;;3.70;;
75386;SDS011;63966;47.914;22.266;2023-05-19T11:18:00;9.67;;;3.93;;
75386;SDS011;63966;47.914;22.266;2023-05-19T11:21:06;6.78;;;3.97;;
75386;SDS011;63966;47.914;22.266;2023-05-19T11:24:09;9.65;;;4.20;;
75386;SDS011;63966;47.914;22.266;2023-05-19T11:27:41;9.88;;;4.55;;
75386;SDS011;63966;47.914;22.266;2023-05-19T11:30:47;7.40;;;3.80;;
75386;SDS011;63966;47.914;22.266;2023-05-19T11:33:51;7.60;;;3.70;;
75386;SDS011;63966;47.914;22.266;2023-05-19T11:36:55;7.55;;;4.00;;
75386;SDS011;63966;47.914;22.266;2023-05-19T11:40:00;8.38;;;4.38;;
75386;SDS011;63966;47.914;22.266;2023-05-19T11:43:08;8.90;;;4.03;;
75386;SDS011;63966;47.914;22.266;2023-05-19T11:46:12;8.63;;;3.97;;
75386;SDS011;63966;47.914;22.266;2023-05-19T11:49:15;8.70;;;3.80;;
75386;SDS011;63966;47.914;22.266;2023-05-19T11:52:20;7.95;;;4.28;;
75386;SDS011;63966;47.914;22.266;2023-05-19T11:55:30;7.45;;;4.53;;
75386;SDS011;63966;47.914;22.266;2023-05-19T11:58:34;10.73;;;4.45;;
75386;SDS011;63966;47.914;22.266;2023-05-19T12:01:40;9.85;;;4.90;;
75386;SDS011;63966;47.914;22.266;2023-05-19T12:04:45;8.90;;;4.23;;
75386;SDS011;63966;47.914;22.266;2023-05-19T12:22:54;10.07;;;5.25;;
75386;SDS011;63966;47.914;22.266;2023-05-19T12:25:58;9.77;;;4.53;;
75386;SDS011;63966;47.914;22.266;2023-05-19T12:29:05;8.15;;;4.95;;
75386;SDS011;63966;47.914;22.266;2023-05-19T12:32:09;8.95;;;4.75;;
75386;SDS011;63966;47.914;22.266;2023-05-19T12:35:14;10.93;;;4.53;;
75386;SDS011;63966;47.914;22.266;2023-05-19T12:38:18;11.98;;;4.72;;
75386;SDS011;63966;47.914;22.266;2023-05-19T12:41:23;9.50;;;4.47;;
75386;SDS011;63966;47.914;22.266;2023-05-19T12:44:28;10.43;;;4.43;;
75386;SDS011;63966;47.914;22.266;2023-05-19T12:47:32;9.00;;;4.43;;
75386;SDS011;63966;47.914;22.266;2023-05-19T12:50:37;8.43;;;4.50;;
75386;SDS011;63966;47.914;22.266;2023-05-19T12:53:40;11.18;;;4.78;;
75386;SDS011;63966;47.914;22.266;2023-05-19T12:56:50;9.93;;;4.33;;
75386;SDS011;63966;47.914;22.266;2023-05-19T12:59:58;7.28;;;4.50;;
75386;SDS011;63966;47.914;22.266;2023-05-19T13:03:03;9.25;;;4.72;;
75386;SDS011;63966;47.914;22.266;2023-05-19T13:06:09;8.57;;;4.60;;
75386;SDS011;63966;47.914;22.266;2023-05-19T13:09:13;8.37;;;4.40;;
75386;SDS011;63966;47.914;22.266;2023-05-19T13:12:18;7.40;;;4.27;;
75386;SDS011;63966;47.914;22.266;2023-05-19T13:15:22;7.82;;;4.22;;
75386;SDS011;63966;47.914;22.266;2023-05-19T13:18:27;9.15;;;4.20;;
75386;SDS011;63966;47.914;22.266;2023-05-19T13:21:33;11.25;;;4.05;;
75386;SDS011;63966;47.914;22.266;2023-05-19T13:24:36;8.00;;;4.53;;
75386;SDS011;63966;47.914;22.266;2023-05-19T13:27:40;7.73;;;4.00;;
75386;SDS011;63966;47.914;22.266;2023-05-19T13:30:45;8.70;;;3.75;;
75386;SDS011;63966;47.914;22.266;2023-05-19T13:33:49;7.57;;;4.72;;
75386;SDS011;63966;47.914;22.266;2023-05-19T13:36:52;10.15;;;4.60;;
75386;SDS011;63966;47.914;22.266;2023-05-19T13:39:56;9.43;;;3.90;;
75386;SDS011;63966;47.914;22.266;2023-05-19T13:43:00;7.03;;;3.70;;
75386;SDS011;63966;47.914;22.266;2023-05-19T13:46:04;6.88;;;4.28;;
75386;SDS011;63966;47.914;22.266;2023-05-19T13:49:08;8.43;;;4.55;;
75386;SDS011;63966;47.914;22.266;2023-05-19T13:52:11;9.35;;;4.60;;
75386;SDS011;63966;47.914;22.266;2023-05-19T13:55:15;10.20;;;4.70;;
75386;SDS011;63966;47.914;22.266;2023-05-19T13:58:19;10.37;;;5.13;;
75386;SDS011;63966;47.914;22.266;2023-05-19T14:01:23;9.20;;;4.72;;
75386;SDS011;63966;47.914;22.266;2023-05-19T14:04:27;8.40;;;4.25;;
75386;SDS011;63966;47.914;22.266;2023-05-19T14:07:30;6.93;;;4.75;;
75386;SDS011;63966;47.914;22.266;2023-05-19T14:10:36;9.50;;;4.30;;
75386;SDS011;63966;47.914;22.266;2023-05-19T14:13:39;7.77;;;4.70;;
75386;SDS011;63966;47.914;22.266;2023-05-19T14:16:44;9.30;;;4.50;;
75386;SDS011;63966;47.914;22.266;2023-05-19T14:19:47;8.77;;;4.65;;
75386;SDS011;63966;47.914;22.266;2023-05-19T14:22:51;8.60;;;4.10;;
75386;SDS011;63966;47.914;22.266;2023-05-19T14:25:54;8.27;;;4.30;;
75386;SDS011;63966;47.914;22.266;2023-05-19T14:28:57;7.40;;;4.70;;
75386;SDS011;63966;47.914;22.266;2023-05-19T14:32:01;10.52;;;5.03;;
75386;SDS011;63966;47.914;22.266;2023-05-19T14:35:05;10.60;;;4.68;;
75386;SDS011;63966;47.914;22.266;2023-05-19T14:38:08;10.05;;;5.03;;
75386;SDS011;63966;47.914;22.266;2023-05-19T14:41:12;9.02;;;4.47;;
75386;SDS011;63966;47.914;22.266;2023-05-19T14:44:15;6.63;;;4.33;;
75386;SDS011;63966;47.914;22.266;2023-05-19T14:47:19;9.05;;;4.75;;
75386;SDS011;63966;47.914;22.266;2023-05-19T14:50:23;7.88;;;4.40;;
75386;SDS011;63966;47.914;22.266;2023-05-19T14:53:30;8.07;;;4.50;;
75386;SDS011;63966;47.914;22.266;2023-05-19T14:56:33;8.67;;;4.53;;
75386;SDS011;63966;47.914;22.266;2023-05-19T14:59:37;7.50;;;4.83;;
75386;SDS011;63966;47.914;22.266;2023-05-19T15:02:40;10.60;;;4.72;;
75386;SDS011;63966;47.914;22.266;2023-05-19T15:05:44;8.07;;;4.50;;
75386;SDS011;63966;47.914;22.266;2023-05-19T15:08:47;7.50;;;4.28;;
75386;SDS011;63966;47.914;22.266;2023-05-19T15:11:50;8.27;;;4.65;;
75386;SDS011;63966;47.914;22.266;2023-05-19T15:14:54;7.93;;;4.70;;
75386;SDS011;63966;47.914;22.266;2023-05-19T15:17:57;9.65;;;4.82;;
75386;SDS011;63966;47.914;22.266;2023-05-19T15:21:00;10.32;;;4.63;;
75386;SDS011;63966;47.914;22.266;2023-05-19T15:24:04;10.68;;;4.93;;
75386;SDS011;63966;47.914;22.266;2023-05-19T15:27:08;8.38;;;4.55;;
75386;SDS011;63966;47.914;22.266;2023-05-19T15:30:11;10.33;;;4.60;;
75386;SDS011;63966;47.914;22.266;2023-05-19T15:33:14;10.63;;;5.38;;
75386;SDS011;63966;47.914;22.266;2023-05-19T15:36:18;8.48;;;4.28;;
75386;SDS011;63966;47.914;22.266;2023-05-19T15:39:21;9.57;;;4.40;;
75386;SDS011;63966;47.914;22.266;2023-05-19T15:42:25;6.83;;;4.47;;
75386;SDS011;63966;47.914;22.266;2023-05-19T15:45:28;9.53;;;4.40;;
75386;SDS011;63966;47.914;22.266;2023-05-19T15:48:32;9.50;;;4.53;;
75386;SDS011;63966;47.914;22.266;2023-05-19T15:51:35;7.35;;;4.50;;
75386;SDS011;63966;47.914;22.266;2023-05-19T15:54:38;6.40;;;4.18;;
75386;SDS011;63966;47.914;22.266;2023-05-19T15:57:42;8.63;;;4.73;;
75386;SDS011;63966;47.914;22.266;2023-05-19T16:00:45;8.57;;;4.70;;
75386;SDS011;63966;47.914;22.266;2023-05-19T16:03:48;7.93;;;4.55;;
75386;SDS011;63966;47.914;22.266;2023-05-19T16:06:52;7.95;;;4.22;;
75386;SDS011;63966;47.914;22.266;2023-05-19T16:09:55;7.70;;;3.90;;
75386;SDS011;63966;47.914;22.266;2023-05-19T16:12:59;9.30;;;4.47;;
75386;SDS011;63966;47.914;22.266;2023-05-19T16:16:02;7.27;;;4.37;;
75386;SDS011;63966;47.914;22.266;2023-05-19T16:19:06;7.30;;;4.45;;
75386;SDS011;63966;47.914;22.266;2023-05-19T16:22:09;9.00;;;4.47;;
75386;SDS011;63966;47.914;22.266;2023-05-19T16:25:13;7.85;;;4.45;;
75386;SDS011;63966;47.914;22.266;2023-05-19T16:28:16;8.87;;;4.23;;
75386;SDS011;63966;47.914;22.266;2023-05-19T16:31:20;7.87;;;4.60;;
75386;SDS011;63966;47.914;22.266;2023-05-19T16:34:23;8.32;;;4.55;;
75386;SDS011;63966;47.914;22.266;2023-05-19T16:37:29;8.90;;;4.57;;
75386;SDS011;63966;47.914;22.266;2023-05-19T16:40:32;10.65;;;4.75;;
75386;SDS011;63966;47.914;22.266;2023-05-19T16:43:36;10.23;;;4.73;;
75386;SDS011;63966;47.914;22.266;2023-05-19T16:46:40;10.03;;;4.43;;
75386;SDS011;63966;47.914;22.266;2023-05-19T16:49:43;10.38;;;4.50;;
75386;SDS011;63966;47.914;22.266;2023-05-19T16:52:46;13.20;;;4.72;;
75386;SDS011;63966;47.914;22.266;2023-05-19T16:55:50;8.32;;;4.40;;
75386;SDS011;63966;47.914;22.266;2023-05-19T16:58:53;9.10;;;4.23;;
75386;SDS011;63966;47.914;22.266;2023-05-19T17:01:56;12.43;;;4.90;;
75386;SDS011;63966;47.914;22.266;2023-05-19T17:05:00;9.13;;;4.72;;
75386;SDS011;63966;47.914;22.266;2023-05-19T17:08:04;10.10;;;4.55;;
75386;SDS011;63966;47.914;22.266;2023-05-19T17:11:07;8.43;;;4.63;;
75386;SDS011;63966;47.914;22.266;2023-05-19T17:14:10;8.77;;;5.00;;
75386;SDS011;63966;47.914;22.266;2023-05-19T17:17:14;10.47;;;4.63;;
75386;SDS011;63966;47.914;22.266;2023-05-19T17:20:17;10.60;;;5.15;;
75386;SDS011;63966;47.914;22.266;2023-05-19T17:23:21;9.38;;;4.70;;
75386;SDS011;63966;47.914;22.266;2023-05-19T17:26:24;11.98;;;5.30;;
75386;SDS011;63966;47.914;22.266;2023-05-19T17:29:27;11.20;;;5.20;;
75386;SDS011;63966;47.914;22.266;2023-05-19T17:32:31;9.47;;;4.70;;
75386;SDS011;63966;47.914;22.266;2023-05-19T17:35:39;7.88;;;4.32;;
75386;SDS011;63966;47.914;22.266;2023-05-19T17:38:43;8.48;;;4.65;;
75386;SDS011;63966;47.914;22.266;2023-05-19T17:41:46;8.57;;;4.35;;
75386;SDS011;63966;47.914;22.266;2023-05-19T17:44:49;10.37;;;4.87;;
75386;SDS011;63966;47.914;22.266;2023-05-19T17:47:53;8.83;;;4.50;;
75386;SDS011;63966;47.914;22.266;2023-05-19T17:50:56;10.18;;;4.85;;
75386;SDS011;63966;47.914;22.266;2023-05-19T17:54:00;11.00;;;5.13;;
75386;SDS011;63966;47.914;22.266;2023-05-19T17:57:06;10.02;;;5.00;;
75386;SDS011;63966;47.914;22.266;2023-05-19T18:00:13;8.37;;;4.70;;
75386;SDS011;63966;47.914;22.266;2023-05-19T18:03:17;9.93;;;4.87;;
75386;SDS011;63966;47.914;22.266;2023-05-19T18:06:21;9.68;;;4.90;;
75386;SDS011;63966;47.914;22.266;2023-05-19T18:09:25;9.68;;;5.10;;
75386;SDS011;63966;47.914;22.266;2023-05-19T18:12:30;7.90;;;4.75;;
75386;SDS011;63966;47.914;22.266;2023-05-19T18:15:33;9.53;;;5.10;;
75386;SDS011;63966;47.914;22.266;2023-05-19T18:18:37;7.87;;;4.70;;
75386;SDS011;63966;47.914;22.266;2023-05-19T18:21:44;9.80;;;4.93;;
75386;SDS011;63966;47.914;22.266;2023-05-19T18:24:48;9.88;;;4.95;;
75386;SDS011;63966;47.914;22.266;2023-05-19T18:27:52;11.05;;;4.78;;
75386;SDS011;63966;47.914;22.266;2023-05-19T18:30:59;9.37;;;5.20;;
75386;SDS011;63966;47.914;22.266;2023-05-19T18:34:04;8.07;;;4.87;;
75386;SDS011;63966;47.914;22.266;2023-05-19T18:37:08;10.48;;;5.40;;
75386;SDS011;63966;47.914;22.266;2023-05-19T18:40:11;11.90;;;6.10;;
75386;SDS011;63966;47.914;22.266;2023-05-19T18:43:15;20.05;;;10.55;;
75386;SDS011;63966;47.914;22.266;2023-05-19T18:46:19;15.50;;;8.13;;
75386;SDS011;63966;47.914;22.266;2023-05-19T18:49:22;14.67;;;8.37;;
75386;SDS011;63966;47.914;22.266;2023-05-19T18:52:26;29.05;;;15.43;;
75386;SDS011;63966;47.914;22.266;2023-05-19T18:55:30;69.22;;;36.58;;
75386;SDS011;63966;47.914;22.266;2023-05-19T18:58:33;61.90;;;32.40;;